Archival Weather

Norman Y Mineta San Jose Intl

San Jose, California (KSJC)

Report from: Wednesday, February 21, 2024 5:53 PM PST
Current time: Thursday, June 20, 2024 11:57 PM PDT

Current weather – Weather history – Daily summaries
Weather forecast

Temperature14.4°C (57.9°F)
Dew point7.8°C (46.0°F)
Winds 8 kts (4.1 m/s, 9.2 mph) North-Northwest (330°)
Visibility10 mi. (16.1 km)
Clouds Few clouds 2,500 ft. (762 m)
Scattered clouds 4,600 ft. (1,402 m)
Ceiling: Broken clouds 7,000 ft. (2,134 m)
Altimeter30.19 in.Hg (1022 mB)
Relative humidity65 %
Density altitude-217 ft. (-66 m)
Sea-level pressure102.2 kPa (1022 mB, 30.18 in.Hg)
Remarks Automated weather observing station with precipitation discriminator
Flight conditions Visual Meteorological Conditions
Raw dataKSJC 220153Z 33008KT 10SM FEW025 SCT046 BKN070 14/08 A3019 RMK AO2 SLP221 T01440078
An error has occurred. This application may no longer respond until reloaded. Reload 🗙